sensor_id;sensor_type;location;lat;lon;timestamp;temperature;humidity
15596;DHT22;7898;48.658;9.068;2023-07-09T00:01:07;18.90;99.90
15596;DHT22;7898;48.658;9.068;2023-07-09T00:03:40;18.90;99.90
15596;DHT22;7898;48.658;9.068;2023-07-09T00:06:07;18.90;99.90
15596;DHT22;7898;48.658;9.068;2023-07-09T00:08:35;18.80;99.90
15596;DHT22;7898;48.658;9.068;2023-07-09T00:11:02;18.80;99.90
15596;DHT22;7898;48.658;9.068;2023-07-09T00:13:29;18.80;99.90
15596;DHT22;7898;48.658;9.068;2023-07-09T00:15:59;18.90;99.90
15596;DHT22;7898;48.658;9.068;2023-07-09T00:18:27;18.90;99.90
15596;DHT22;7898;48.658;9.068;2023-07-09T00:20:55;18.80;99.90
15596;DHT22;7898;48.658;9.068;2023-07-09T00:23:21;18.70;99.90
15596;DHT22;7898;48.658;9.068;2023-07-09T00:25:48;18.70;99.90
15596;DHT22;7898;48.658;9.068;2023-07-09T00:28:15;18.60;99.90
15596;DHT22;7898;48.658;9.068;2023-07-09T00:30:44;18.60;99.90
15596;DHT22;7898;48.658;9.068;2023-07-09T00:33:12;18.50;99.90
15596;DHT22;7898;48.658;9.068;2023-07-09T00:35:40;18.50;99.90
15596;DHT22;7898;48.658;9.068;2023-07-09T00:38:13;18.50;99.90
15596;DHT22;7898;48.658;9.068;2023-07-09T00:40:47;18.50;99.90
15596;DHT22;7898;48.658;9.068;2023-07-09T00:43:16;18.40;99.90
15596;DHT22;7898;48.658;9.068;2023-07-09T00:45:43;18.40;99.90
15596;DHT22;7898;48.658;9.068;2023-07-09T00:48:13;18.30;99.90
15596;DHT22;7898;48.658;9.068;2023-07-09T00:50:44;18.30;99.90
15596;DHT22;7898;48.658;9.068;2023-07-09T00:53:18;18.30;99.90
15596;DHT22;7898;48.658;9.068;2023-07-09T00:55:51;18.20;99.90
15596;DHT22;7898;48.658;9.068;2023-07-09T00:58:20;18.30;99.90
15596;DHT22;7898;48.658;9.068;2023-07-09T01:00:51;18.20;99.90
15596;DHT22;7898;48.658;9.068;2023-07-09T01:03:23;18.20;99.90
15596;DHT22;7898;48.658;9.068;2023-07-09T01:05:53;18.20;99.90
15596;DHT22;7898;48.658;9.068;2023-07-09T01:08:22;18.20;99.90
15596;DHT22;7898;48.658;9.068;2023-07-09T01:10:49;18.20;99.90
15596;DHT22;7898;48.658;9.068;2023-07-09T01:13:16;18.20;99.90
15596;DHT22;7898;48.658;9.068;2023-07-09T01:15:45;18.20;99.90
15596;DHT22;7898;48.658;9.068;2023-07-09T01:18:13;18.10;99.90
15596;DHT22;7898;48.658;9.068;2023-07-09T01:20:40;18.10;99.90
15596;DHT22;7898;48.658;9.068;2023-07-09T01:23:09;18.10;99.90
15596;DHT22;7898;48.658;9.068;2023-07-09T01:25:41;18.00;99.90
15596;DHT22;7898;48.658;9.068;2023-07-09T01:28:09;18.00;99.90
15596;DHT22;7898;48.658;9.068;2023-07-09T01:30:38;17.90;99.90
15596;DHT22;7898;48.658;9.068;2023-07-09T01:33:06;17.90;99.90
15596;DHT22;7898;48.658;9.068;2023-07-09T01:35:37;17.90;99.90
15596;DHT22;7898;48.658;9.068;2023-07-09T01:38:06;17.90;99.90
15596;DHT22;7898;48.658;9.068;2023-07-09T01:40:35;17.90;99.90
15596;DHT22;7898;48.658;9.068;2023-07-09T01:43:04;17.80;99.90
15596;DHT22;7898;48.658;9.068;2023-07-09T01:45:33;17.90;99.90
15596;DHT22;7898;48.658;9.068;2023-07-09T01:48:01;17.90;99.90
15596;DHT22;7898;48.658;9.068;2023-07-09T01:50:29;17.80;99.90
15596;DHT22;7898;48.658;9.068;2023-07-09T01:52:56;17.70;99.90
15596;DHT22;7898;48.658;9.068;2023-07-09T01:55:24;17.70;99.90
15596;DHT22;7898;48.658;9.068;2023-07-09T01:57:52;17.60;99.90
15596;DHT22;7898;48.658;9.068;2023-07-09T02:00:19;17.60;99.90
15596;DHT22;7898;48.658;9.068;2023-07-09T02:02:47;17.60;99.90
15596;DHT22;7898;48.658;9.068;2023-07-09T02:05:16;17.60;99.90
15596;DHT22;7898;48.658;9.068;2023-07-09T02:07:43;17.50;99.90
15596;DHT22;7898;48.658;9.068;2023-07-09T02:10:11;17.60;99.90
15596;DHT22;7898;48.658;9.068;2023-07-09T02:12:38;17.50;99.90
15596;DHT22;7898;48.658;9.068;2023-07-09T02:15:08;17.40;99.90
15596;DHT22;7898;48.658;9.068;2023-07-09T02:17:35;17.40;99.90
15596;DHT22;7898;48.658;9.068;2023-07-09T02:20:03;17.30;99.90
15596;DHT22;7898;48.658;9.068;2023-07-09T02:22:31;17.20;99.90
15596;DHT22;7898;48.658;9.068;2023-07-09T02:24:58;17.20;99.90
15596;DHT22;7898;48.658;9.068;2023-07-09T02:27:24;17.20;99.90
15596;DHT22;7898;48.658;9.068;2023-07-09T02:29:51;17.30;99.90
15596;DHT22;7898;48.658;9.068;2023-07-09T02:32:23;17.20;99.90
15596;DHT22;7898;48.658;9.068;2023-07-09T02:34:52;17.20;99.90
15596;DHT22;7898;48.658;9.068;2023-07-09T02:37:20;17.20;99.90
15596;DHT22;7898;48.658;9.068;2023-07-09T02:39:48;17.20;99.90
15596;DHT22;7898;48.658;9.068;2023-07-09T02:42:17;17.20;99.90
15596;DHT22;7898;48.658;9.068;2023-07-09T02:44:45;17.20;99.90
15596;DHT22;7898;48.658;9.068;2023-07-09T02:47:12;17.30;99.90
15596;DHT22;7898;48.658;9.068;2023-07-09T02:49:41;17.40;99.90
15596;DHT22;7898;48.658;9.068;2023-07-09T02:52:08;17.40;99.90
15596;DHT22;7898;48.658;9.068;2023-07-09T02:54:35;17.30;99.90
15596;DHT22;7898;48.658;9.068;2023-07-09T02:57:02;17.10;99.90
15596;DHT22;7898;48.658;9.068;2023-07-09T02:59:29;17.00;99.90
15596;DHT22;7898;48.658;9.068;2023-07-09T03:01:56;16.90;99.90
15596;DHT22;7898;48.658;9.068;2023-07-09T03:04:23;16.90;99.90
15596;DHT22;7898;48.658;9.068;2023-07-09T03:06:52;16.80;99.90
15596;DHT22;7898;48.658;9.068;2023-07-09T03:09:19;16.80;99.90
15596;DHT22;7898;48.658;9.068;2023-07-09T03:11:46;16.80;99.90
15596;DHT22;7898;48.658;9.068;2023-07-09T03:14:14;16.70;99.90
15596;DHT22;7898;48.658;9.068;2023-07-09T03:16:41;16.70;99.90
15596;DHT22;7898;48.658;9.068;2023-07-09T03:19:08;16.70;99.90
15596;DHT22;7898;48.658;9.068;2023-07-09T03:21:35;16.80;99.90
15596;DHT22;7898;48.658;9.068;2023-07-09T03:24:04;16.80;99.90
15596;DHT22;7898;48.658;9.068;2023-07-09T03:26:31;16.80;99.90
15596;DHT22;7898;48.658;9.068;2023-07-09T03:28:58;16.70;99.90
15596;DHT22;7898;48.658;9.068;2023-07-09T03:31:25;16.60;99.90
15596;DHT22;7898;48.658;9.068;2023-07-09T03:33:52;16.60;99.90
15596;DHT22;7898;48.658;9.068;2023-07-09T03:36:19;16.50;99.90
15596;DHT22;7898;48.658;9.068;2023-07-09T03:38:46;16.50;99.90
15596;DHT22;7898;48.658;9.068;2023-07-09T03:41:15;16.50;99.90
15596;DHT22;7898;48.658;9.068;2023-07-09T03:43:42;16.50;99.90
15596;DHT22;7898;48.658;9.068;2023-07-09T03:46:09;16.50;99.90
15596;DHT22;7898;48.658;9.068;2023-07-09T03:48:37;16.50;99.90
15596;DHT22;7898;48.658;9.068;2023-07-09T03:51:04;16.50;99.90
15596;DHT22;7898;48.658;9.068;2023-07-09T03:53:30;16.50;99.90
15596;DHT22;7898;48.658;9.068;2023-07-09T03:55:57;16.50;99.90
15596;DHT22;7898;48.658;9.068;2023-07-09T03:58:27;16.50;99.90
15596;DHT22;7898;48.658;9.068;2023-07-09T04:00:54;16.50;99.90
15596;DHT22;7898;48.658;9.068;2023-07-09T04:03:21;16.60;99.90
15596;DHT22;7898;48.658;9.068;2023-07-09T04:05:48;16.60;99.90
15596;DHT22;7898;48.658;9.068;2023-07-09T04:08:16;16.60;99.90
15596;DHT22;7898;48.658;9.068;2023-07-09T04:10:43;16.70;99.90
15596;DHT22;7898;48.658;9.068;2023-07-09T04:13:10;16.70;99.90
15596;DHT22;7898;48.658;9.068;2023-07-09T04:15:38;16.80;99.90
15596;DHT22;7898;48.658;9.068;2023-07-09T04:18:05;16.90;99.90
15596;DHT22;7898;48.658;9.068;2023-07-09T04:20:32;16.90;99.90
15596;DHT22;7898;48.658;9.068;2023-07-09T04:23:00;17.00;99.90
15596;DHT22;7898;48.658;9.068;2023-07-09T04:25:27;17.00;99.90
15596;DHT22;7898;48.658;9.068;2023-07-09T04:27:54;17.10;99.90
15596;DHT22;7898;48.658;9.068;2023-07-09T04:30:21;17.00;99.90
15596;DHT22;7898;48.658;9.068;2023-07-09T04:32:49;17.10;99.90
15596;DHT22;7898;48.658;9.068;2023-07-09T04:35:16;17.10;99.90
15596;DHT22;7898;48.658;9.068;2023-07-09T04:37:43;17.10;99.90
15596;DHT22;7898;48.658;9.068;2023-07-09T04:40:13;17.30;99.90
15596;DHT22;7898;48.658;9.068;2023-07-09T04:42:41;17.30;99.90
15596;DHT22;7898;48.658;9.068;2023-07-09T04:45:09;17.40;99.90
15596;DHT22;7898;48.658;9.068;2023-07-09T04:47:37;17.50;99.90
15596;DHT22;7898;48.658;9.068;2023-07-09T04:50:07;17.60;99.90
15596;DHT22;7898;48.658;9.068;2023-07-09T04:52:34;17.80;99.90
15596;DHT22;7898;48.658;9.068;2023-07-09T04:55:01;17.90;99.90
15596;DHT22;7898;48.658;9.068;2023-07-09T04:57:28;18.10;99.90
15596;DHT22;7898;48.658;9.068;2023-07-09T04:59:55;18.20;99.90
15596;DHT22;7898;48.658;9.068;2023-07-09T05:02:22;18.40;99.90
15596;DHT22;7898;48.658;9.068;2023-07-09T05:04:49;18.50;99.90
15596;DHT22;7898;48.658;9.068;2023-07-09T05:07:17;18.70;99.90
15596;DHT22;7898;48.658;9.068;2023-07-09T05:09:44;18.90;99.90
15596;DHT22;7898;48.658;9.068;2023-07-09T05:12:11;19.00;99.90
15596;DHT22;7898;48.658;9.068;2023-07-09T05:14:38;19.10;99.90
15596;DHT22;7898;48.658;9.068;2023-07-09T05:17:06;19.20;99.90
15596;DHT22;7898;48.658;9.068;2023-07-09T05:19:33;19.40;99.90
15596;DHT22;7898;48.658;9.068;2023-07-09T05:22:01;19.60;99.90
15596;DHT22;7898;48.658;9.068;2023-07-09T05:24:29;19.80;99.90
15596;DHT22;7898;48.658;9.068;2023-07-09T05:26:56;20.00;99.90
15596;DHT22;7898;48.658;9.068;2023-07-09T05:29:24;20.20;99.90
15596;DHT22;7898;48.658;9.068;2023-07-09T05:31:51;20.40;99.90
15596;DHT22;7898;48.658;9.068;2023-07-09T05:34:18;20.50;99.90
15596;DHT22;7898;48.658;9.068;2023-07-09T05:36:45;20.60;99.90
15596;DHT22;7898;48.658;9.068;2023-07-09T05:39:12;20.80;99.90
15596;DHT22;7898;48.658;9.068;2023-07-09T05:41:40;20.80;99.90
15596;DHT22;7898;48.658;9.068;2023-07-09T05:44:07;20.90;99.90
15596;DHT22;7898;48.658;9.068;2023-07-09T05:46:35;21.00;99.90
15596;DHT22;7898;48.658;9.068;2023-07-09T05:49:03;21.10;99.90
15596;DHT22;7898;48.658;9.068;2023-07-09T05:51:30;21.30;99.90
15596;DHT22;7898;48.658;9.068;2023-07-09T05:53:57;21.50;99.90
15596;DHT22;7898;48.658;9.068;2023-07-09T05:56:24;21.60;99.90
15596;DHT22;7898;48.658;9.068;2023-07-09T05:58:52;21.80;99.90
15596;DHT22;7898;48.658;9.068;2023-07-09T06:01:19;21.90;99.90
15596;DHT22;7898;48.658;9.068;2023-07-09T06:03:47;22.20;99.90
15596;DHT22;7898;48.658;9.068;2023-07-09T06:06:15;22.30;99.90
15596;DHT22;7898;48.658;9.068;2023-07-09T06:08:42;22.60;99.90
15596;DHT22;7898;48.658;9.068;2023-07-09T06:11:09;22.80;99.90
15596;DHT22;7898;48.658;9.068;2023-07-09T06:13:36;23.00;99.90
15596;DHT22;7898;48.658;9.068;2023-07-09T06:16:05;23.10;99.90
15596;DHT22;7898;48.658;9.068;2023-07-09T06:18:32;23.30;99.90
15596;DHT22;7898;48.658;9.068;2023-07-09T06:21:01;23.60;99.90
15596;DHT22;7898;48.658;9.068;2023-07-09T06:23:29;23.70;99.90
15596;DHT22;7898;48.658;9.068;2023-07-09T06:25:56;23.90;99.90
15596;DHT22;7898;48.658;9.068;2023-07-09T06:28:25;24.00;99.90
15596;DHT22;7898;48.658;9.068;2023-07-09T06:30:54;24.30;99.90
15596;DHT22;7898;48.658;9.068;2023-07-09T06:33:23;24.40;99.90
15596;DHT22;7898;48.658;9.068;2023-07-09T06:35:52;24.60;99.90
15596;DHT22;7898;48.658;9.068;2023-07-09T06:38:19;24.70;99.90
15596;DHT22;7898;48.658;9.068;2023-07-09T06:40:46;24.80;99.90
15596;DHT22;7898;48.658;9.068;2023-07-09T06:43:13;24.90;99.90
15596;DHT22;7898;48.658;9.068;2023-07-09T06:45:48;25.00;99.90
15596;DHT22;7898;48.658;9.068;2023-07-09T06:48:15;25.20;99.90
15596;DHT22;7898;48.658;9.068;2023-07-09T06:50:44;25.40;99.90
15596;DHT22;7898;48.658;9.068;2023-07-09T06:53:11;25.60;99.90
15596;DHT22;7898;48.658;9.068;2023-07-09T06:55:38;25.80;99.90
15596;DHT22;7898;48.658;9.068;2023-07-09T06:58:05;26.10;99.90
15596;DHT22;7898;48.658;9.068;2023-07-09T07:00:33;26.40;99.90
15596;DHT22;7898;48.658;9.068;2023-07-09T07:03:01;26.80;99.90
15596;DHT22;7898;48.658;9.068;2023-07-09T07:05:27;27.40;99.90
15596;DHT22;7898;48.658;9.068;2023-07-09T07:07:56;27.90;99.90
15596;DHT22;7898;48.658;9.068;2023-07-09T07:10:23;28.20;99.90
15596;DHT22;7898;48.658;9.068;2023-07-09T07:12:52;28.50;99.90
15596;DHT22;7898;48.658;9.068;2023-07-09T07:15:20;29.00;99.90
15596;DHT22;7898;48.658;9.068;2023-07-09T07:17:47;29.40;99.90
15596;DHT22;7898;48.658;9.068;2023-07-09T07:20:16;29.60;99.90
15596;DHT22;7898;48.658;9.068;2023-07-09T07:22:43;30.00;99.90
15596;DHT22;7898;48.658;9.068;2023-07-09T07:25:11;30.20;99.90
15596;DHT22;7898;48.658;9.068;2023-07-09T07:27:39;30.50;99.90
15596;DHT22;7898;48.658;9.068;2023-07-09T07:30:07;30.70;99.90
15596;DHT22;7898;48.658;9.068;2023-07-09T07:32:35;30.90;99.90
15596;DHT22;7898;48.658;9.068;2023-07-09T07:35:03;31.10;99.90
15596;DHT22;7898;48.658;9.068;2023-07-09T07:37:30;31.40;99.90
15596;DHT22;7898;48.658;9.068;2023-07-09T07:39:56;31.40;99.90
15596;DHT22;7898;48.658;9.068;2023-07-09T07:42:25;31.20;99.90
15596;DHT22;7898;48.658;9.068;2023-07-09T07:44:52;31.10;99.90
15596;DHT22;7898;48.658;9.068;2023-07-09T07:47:19;31.10;99.90
15596;DHT22;7898;48.658;9.068;2023-07-09T07:49:46;31.30;99.90
15596;DHT22;7898;48.658;9.068;2023-07-09T07:52:13;31.30;99.90
15596;DHT22;7898;48.658;9.068;2023-07-09T07:54:40;31.10;99.90
15596;DHT22;7898;48.658;9.068;2023-07-09T07:57:07;31.00;99.90
15596;DHT22;7898;48.658;9.068;2023-07-09T07:59:36;31.10;99.90
15596;DHT22;7898;48.658;9.068;2023-07-09T08:02:04;31.30;99.90
15596;DHT22;7898;48.658;9.068;2023-07-09T08:04:30;31.40;99.90
15596;DHT22;7898;48.658;9.068;2023-07-09T08:06:58;31.60;99.90
15596;DHT22;7898;48.658;9.068;2023-07-09T08:09:25;31.80;99.90
15596;DHT22;7898;48.658;9.068;2023-07-09T08:11:52;32.00;99.90
15596;DHT22;7898;48.658;9.068;2023-07-09T08:14:19;32.00;99.90
15596;DHT22;7898;48.658;9.068;2023-07-09T08:16:47;32.10;99.90
15596;DHT22;7898;48.658;9.068;2023-07-09T08:19:19;32.20;99.50
15596;DHT22;7898;48.658;9.068;2023-07-09T08:21:46;32.40;99.90
15596;DHT22;7898;48.658;9.068;2023-07-09T08:24:13;32.60;99.50
15596;DHT22;7898;48.658;9.068;2023-07-09T08:26:41;32.70;99.60
15596;DHT22;7898;48.658;9.068;2023-07-09T08:29:07;32.70;98.20
15596;DHT22;7898;48.658;9.068;2023-07-09T08:31:34;32.60;96.60
15596;DHT22;7898;48.658;9.068;2023-07-09T08:34:05;32.30;97.20
15596;DHT22;7898;48.658;9.068;2023-07-09T08:36:32;32.10;96.80
15596;DHT22;7898;48.658;9.068;2023-07-09T08:39:00;32.10;97.10
15596;DHT22;7898;48.658;9.068;2023-07-09T08:41:37;32.20;97.60
15596;DHT22;7898;48.658;9.068;2023-07-09T08:44:22;32.30;97.80
15596;DHT22;7898;48.658;9.068;2023-07-09T08:47:00;32.30;97.50
15596;DHT22;7898;48.658;9.068;2023-07-09T08:49:37;32.30;98.20
15596;DHT22;7898;48.658;9.068;2023-07-09T08:52:12;32.50;97.50
15596;DHT22;7898;48.658;9.068;2023-07-09T08:54:41;32.70;97.90
15596;DHT22;7898;48.658;9.068;2023-07-09T08:57:17;32.90;98.20
15596;DHT22;7898;48.658;9.068;2023-07-09T08:59:46;33.10;98.40
15596;DHT22;7898;48.658;9.068;2023-07-09T09:02:22;33.20;97.60
15596;DHT22;7898;48.658;9.068;2023-07-09T09:04:53;33.20;96.60
15596;DHT22;7898;48.658;9.068;2023-07-09T09:07:27;33.00;96.30
15596;DHT22;7898;48.658;9.068;2023-07-09T09:09:57;32.90;97.00
15596;DHT22;7898;48.658;9.068;2023-07-09T09:12:28;33.00;97.10
15596;DHT22;7898;48.658;9.068;2023-07-09T09:14:57;33.00;97.00
15596;DHT22;7898;48.658;9.068;2023-07-09T09:17:26;33.20;97.60
15596;DHT22;7898;48.658;9.068;2023-07-09T09:19:59;33.40;97.10
15596;DHT22;7898;48.658;9.068;2023-07-09T09:22:36;33.40;96.10
15596;DHT22;7898;48.658;9.068;2023-07-09T09:25:16;33.40;95.10
15596;DHT22;7898;48.658;9.068;2023-07-09T09:27:45;33.40;94.00
15596;DHT22;7898;48.658;9.068;2023-07-09T09:30:14;33.30;94.30
15596;DHT22;7898;48.658;9.068;2023-07-09T09:32:43;33.30;95.20
15596;DHT22;7898;48.658;9.068;2023-07-09T09:35:13;33.20;94.60
15596;DHT22;7898;48.658;9.068;2023-07-09T09:37:43;33.20;94.60
15596;DHT22;7898;48.658;9.068;2023-07-09T09:40:11;33.10;93.50
15596;DHT22;7898;48.658;9.068;2023-07-09T09:42:38;33.00;93.80
15596;DHT22;7898;48.658;9.068;2023-07-09T09:45:12;33.10;94.00
15596;DHT22;7898;48.658;9.068;2023-07-09T09:47:40;33.10;93.20
15596;DHT22;7898;48.658;9.068;2023-07-09T09:50:10;33.20;93.20
15596;DHT22;7898;48.658;9.068;2023-07-09T09:52:41;33.20;93.00
15596;DHT22;7898;48.658;9.068;2023-07-09T09:55:11;33.20;93.60
15596;DHT22;7898;48.658;9.068;2023-07-09T09:57:38;33.30;93.40
15596;DHT22;7898;48.658;9.068;2023-07-09T10:00:12;33.40;92.90
15596;DHT22;7898;48.658;9.068;2023-07-09T10:02:40;33.40;92.80
15596;DHT22;7898;48.658;9.068;2023-07-09T10:05:11;33.40;92.80
15596;DHT22;7898;48.658;9.068;2023-07-09T10:07:43;33.50;92.20
15596;DHT22;7898;48.658;9.068;2023-07-09T10:10:14;33.40;90.90
15596;DHT22;7898;48.658;9.068;2023-07-09T10:12:46;33.10;89.80
15596;DHT22;7898;48.658;9.068;2023-07-09T10:15:24;33.00;89.80
15596;DHT22;7898;48.658;9.068;2023-07-09T10:17:57;33.00;90.30
15596;DHT22;7898;48.658;9.068;2023-07-09T10:20:31;32.90;88.50
15596;DHT22;7898;48.658;9.068;2023-07-09T10:23:07;32.80;89.50
15596;DHT22;7898;48.658;9.068;2023-07-09T10:25:42;32.80;90.10
15596;DHT22;7898;48.658;9.068;2023-07-09T10:31:13;33.00;90.70
15596;DHT22;7898;48.658;9.068;2023-07-09T10:33:53;33.00;90.00
15596;DHT22;7898;48.658;9.068;2023-07-09T10:36:30;33.00;90.30
15596;DHT22;7898;48.658;9.068;2023-07-09T10:39:05;33.10;89.30
15596;DHT22;7898;48.658;9.068;2023-07-09T10:41:35;33.20;90.20
15596;DHT22;7898;48.658;9.068;2023-07-09T10:44:10;33.30;88.90
15596;DHT22;7898;48.658;9.068;2023-07-09T10:46:39;33.30;88.20
15596;DHT22;7898;48.658;9.068;2023-07-09T10:49:10;33.40;89.90
15596;DHT22;7898;48.658;9.068;2023-07-09T10:51:39;33.50;87.20
15596;DHT22;7898;48.658;9.068;2023-07-09T10:54:14;33.50;87.10
15596;DHT22;7898;48.658;9.068;2023-07-09T10:56:43;33.60;86.90
15596;DHT22;7898;48.658;9.068;2023-07-09T10:59:26;33.60;85.90
15596;DHT22;7898;48.658;9.068;2023-07-09T11:01:57;33.50;85.50
15596;DHT22;7898;48.658;9.068;2023-07-09T11:04:30;33.40;85.50
15596;DHT22;7898;48.658;9.068;2023-07-09T11:07:01;33.40;85.30
15596;DHT22;7898;48.658;9.068;2023-07-09T11:09:34;33.20;86.50
15596;DHT22;7898;48.658;9.068;2023-07-09T11:12:05;33.20;85.80
15596;DHT22;7898;48.658;9.068;2023-07-09T11:14:39;33.20;85.80
15596;DHT22;7898;48.658;9.068;2023-07-09T11:17:13;33.20;85.40
15596;DHT22;7898;48.658;9.068;2023-07-09T11:19:46;33.40;88.60
15596;DHT22;7898;48.658;9.068;2023-07-09T11:22:16;33.30;87.10
15596;DHT22;7898;48.658;9.068;2023-07-09T11:24:49;33.30;90.10
15596;DHT22;7898;48.658;9.068;2023-07-09T11:27:20;33.40;89.00
15596;DHT22;7898;48.658;9.068;2023-07-09T11:29:48;33.40;90.10
15596;DHT22;7898;48.658;9.068;2023-07-09T11:32:22;33.60;86.20
15596;DHT22;7898;48.658;9.068;2023-07-09T11:34:49;33.50;83.00
15596;DHT22;7898;48.658;9.068;2023-07-09T11:37:17;33.40;86.70
15596;DHT22;7898;48.658;9.068;2023-07-09T11:39:46;33.50;86.20
15596;DHT22;7898;48.658;9.068;2023-07-09T11:42:26;33.60;86.70
15596;DHT22;7898;48.658;9.068;2023-07-09T11:44:58;33.70;87.10
15596;DHT22;7898;48.658;9.068;2023-07-09T11:47:29;33.70;86.70
15596;DHT22;7898;48.658;9.068;2023-07-09T11:49:59;33.80;86.80
15596;DHT22;7898;48.658;9.068;2023-07-09T11:52:30;33.80;86.90
15596;DHT22;7898;48.658;9.068;2023-07-09T11:55:02;33.80;86.00
15596;DHT22;7898;48.658;9.068;2023-07-09T11:57:30;33.80;85.10
15596;DHT22;7898;48.658;9.068;2023-07-09T11:59:59;33.60;84.20
15596;DHT22;7898;48.658;9.068;2023-07-09T12:02:31;33.50;85.10
15596;DHT22;7898;48.658;9.068;2023-07-09T12:04:59;33.60;86.90
15596;DHT22;7898;48.658;9.068;2023-07-09T12:07:29;33.60;86.50
15596;DHT22;7898;48.658;9.068;2023-07-09T12:09:56;33.70;85.40
15596;DHT22;7898;48.658;9.068;2023-07-09T12:12:24;33.70;85.50
15596;DHT22;7898;48.658;9.068;2023-07-09T12:14:53;33.80;84.20
15596;DHT22;7898;48.658;9.068;2023-07-09T12:17:23;33.70;84.50
15596;DHT22;7898;48.658;9.068;2023-07-09T12:19:51;33.60;85.40
15596;DHT22;7898;48.658;9.068;2023-07-09T12:22:19;33.70;84.30
15596;DHT22;7898;48.658;9.068;2023-07-09T12:24:49;33.80;84.00
15596;DHT22;7898;48.658;9.068;2023-07-09T12:27:19;33.90;80.50
15596;DHT22;7898;48.658;9.068;2023-07-09T12:29:47;33.90;82.00
15596;DHT22;7898;48.658;9.068;2023-07-09T12:32:16;34.00;81.80
15596;DHT22;7898;48.658;9.068;2023-07-09T12:34:50;34.10;84.00
15596;DHT22;7898;48.658;9.068;2023-07-09T12:37:18;34.20;82.90
15596;DHT22;7898;48.658;9.068;2023-07-09T12:39:47;34.30;83.90
15596;DHT22;7898;48.658;9.068;2023-07-09T12:42:16;34.40;82.50
15596;DHT22;7898;48.658;9.068;2023-07-09T12:44:44;34.30;81.60
15596;DHT22;7898;48.658;9.068;2023-07-09T12:47:14;34.30;81.30
15596;DHT22;7898;48.658;9.068;2023-07-09T12:49:44;34.50;80.90
15596;DHT22;7898;48.658;9.068;2023-07-09T12:52:14;34.40;80.80
15596;DHT22;7898;48.658;9.068;2023-07-09T12:54:52;34.30;81.30
15596;DHT22;7898;48.658;9.068;2023-07-09T12:57:21;34.30;80.90
15596;DHT22;7898;48.658;9.068;2023-07-09T12:59:49;34.30;77.90
15596;DHT22;7898;48.658;9.068;2023-07-09T13:02:19;34.20;78.10
15596;DHT22;7898;48.658;9.068;2023-07-09T13:04:48;34.40;80.00
15596;DHT22;7898;48.658;9.068;2023-07-09T13:07:26;34.50;79.30
15596;DHT22;7898;48.658;9.068;2023-07-09T13:09:55;34.60;79.40
15596;DHT22;7898;48.658;9.068;2023-07-09T13:12:29;34.60;77.60
15596;DHT22;7898;48.658;9.068;2023-07-09T13:14:57;34.80;82.70
15596;DHT22;7898;48.658;9.068;2023-07-09T13:17:28;35.00;80.30
15596;DHT22;7898;48.658;9.068;2023-07-09T13:19:56;35.00;79.30
15596;DHT22;7898;48.658;9.068;2023-07-09T13:22:23;34.90;79.20
15596;DHT22;7898;48.658;9.068;2023-07-09T13:24:51;34.90;79.10
15596;DHT22;7898;48.658;9.068;2023-07-09T13:27:18;35.00;81.20
15596;DHT22;7898;48.658;9.068;2023-07-09T13:29:45;35.10;78.30
15596;DHT22;7898;48.658;9.068;2023-07-09T13:32:14;35.40;80.00
15596;DHT22;7898;48.658;9.068;2023-07-09T13:34:43;35.60;78.60
15596;DHT22;7898;48.658;9.068;2023-07-09T13:37:12;35.90;79.20
15596;DHT22;7898;48.658;9.068;2023-07-09T13:39:40;35.90;78.30
15596;DHT22;7898;48.658;9.068;2023-07-09T13:42:11;35.60;78.20
15596;DHT22;7898;48.658;9.068;2023-07-09T13:44:40;35.80;80.10
15596;DHT22;7898;48.658;9.068;2023-07-09T13:47:12;35.90;78.30
15596;DHT22;7898;48.658;9.068;2023-07-09T13:49:40;35.80;78.40
15596;DHT22;7898;48.658;9.068;2023-07-09T13:52:15;35.40;79.50
15596;DHT22;7898;48.658;9.068;2023-07-09T13:54:43;35.10;80.40
15596;DHT22;7898;48.658;9.068;2023-07-09T13:57:15;35.00;80.90
15596;DHT22;7898;48.658;9.068;2023-07-09T13:59:43;35.20;81.70
15596;DHT22;7898;48.658;9.068;2023-07-09T14:02:20;35.20;80.90
15596;DHT22;7898;48.658;9.068;2023-07-09T14:04:50;35.20;79.00
15596;DHT22;7898;48.658;9.068;2023-07-09T14:07:30;35.60;79.20
15596;DHT22;7898;48.658;9.068;2023-07-09T14:09:58;36.00;77.50
15596;DHT22;7898;48.658;9.068;2023-07-09T14:12:26;36.40;75.20
15596;DHT22;7898;48.658;9.068;2023-07-09T14:14:53;36.80;77.30
15596;DHT22;7898;48.658;9.068;2023-07-09T14:17:22;37.10;75.30
15596;DHT22;7898;48.658;9.068;2023-07-09T14:19:49;37.20;76.00
15596;DHT22;7898;48.658;9.068;2023-07-09T14:22:27;37.40;75.30
15596;DHT22;7898;48.658;9.068;2023-07-09T14:24:57;36.80;75.10
15596;DHT22;7898;48.658;9.068;2023-07-09T14:27:24;36.60;75.70
15596;DHT22;7898;48.658;9.068;2023-07-09T14:29:51;36.60;76.40
15596;DHT22;7898;48.658;9.068;2023-07-09T14:32:33;36.70;75.50
15596;DHT22;7898;48.658;9.068;2023-07-09T14:35:02;36.70;75.50
15596;DHT22;7898;48.658;9.068;2023-07-09T14:37:31;36.70;75.70
15596;DHT22;7898;48.658;9.068;2023-07-09T14:39:58;36.40;73.50
15596;DHT22;7898;48.658;9.068;2023-07-09T14:42:25;36.20;75.10
15596;DHT22;7898;48.658;9.068;2023-07-09T14:44:52;36.40;74.90
15596;DHT22;7898;48.658;9.068;2023-07-09T14:47:20;36.20;73.70
15596;DHT22;7898;48.658;9.068;2023-07-09T14:49:48;36.00;73.90
15596;DHT22;7898;48.658;9.068;2023-07-09T14:52:20;36.50;73.20
15596;DHT22;7898;48.658;9.068;2023-07-09T14:54:49;36.70;74.10
15596;DHT22;7898;48.658;9.068;2023-07-09T14:57:20;36.90;72.30
15596;DHT22;7898;48.658;9.068;2023-07-09T14:59:48;36.80;70.90
15596;DHT22;7898;48.658;9.068;2023-07-09T15:02:22;36.90;72.20
15596;DHT22;7898;48.658;9.068;2023-07-09T15:04:49;37.70;71.30
15596;DHT22;7898;48.658;9.068;2023-07-09T15:07:16;38.00;70.60
15596;DHT22;7898;48.658;9.068;2023-07-09T15:09:43;38.10;69.90
15596;DHT22;7898;48.658;9.068;2023-07-09T15:12:17;38.30;70.20
15596;DHT22;7898;48.658;9.068;2023-07-09T15:14:45;37.80;69.60
15596;DHT22;7898;48.658;9.068;2023-07-09T15:17:12;37.40;70.60
15596;DHT22;7898;48.658;9.068;2023-07-09T15:19:39;37.10;69.40
15596;DHT22;7898;48.658;9.068;2023-07-09T15:22:17;37.10;70.80
15596;DHT22;7898;48.658;9.068;2023-07-09T15:24:45;37.30;70.30
15596;DHT22;7898;48.658;9.068;2023-07-09T15:27:14;37.50;69.80
15596;DHT22;7898;48.658;9.068;2023-07-09T15:29:42;37.30;69.60
15596;DHT22;7898;48.658;9.068;2023-07-09T15:32:09;37.10;70.70
15596;DHT22;7898;48.658;9.068;2023-07-09T15:34:36;36.90;70.60
15596;DHT22;7898;48.658;9.068;2023-07-09T15:37:10;36.40;72.00
15596;DHT22;7898;48.658;9.068;2023-07-09T15:39:39;35.90;73.40
15596;DHT22;7898;48.658;9.068;2023-07-09T15:42:10;35.40;72.50
15596;DHT22;7898;48.658;9.068;2023-07-09T15:44:39;35.30;72.60
15596;DHT22;7898;48.658;9.068;2023-07-09T15:47:15;35.00;73.20
15596;DHT22;7898;48.658;9.068;2023-07-09T15:49:43;34.90;74.00
15596;DHT22;7898;48.658;9.068;2023-07-09T15:52:10;34.80;75.40
15596;DHT22;7898;48.658;9.068;2023-07-09T15:54:37;34.70;74.50
15596;DHT22;7898;48.658;9.068;2023-07-09T15:57:05;34.60;76.40
15596;DHT22;7898;48.658;9.068;2023-07-09T15:59:34;34.40;76.00